LCRA/AKT METAR and TAF weather

Enter ICAO airport designator
Station Type Date Time Source
LCRA METAR 2024/05/28 22:50 UTC NOAA

LCRA 282250Z 28006KT CAVOK 20/18 Q1011 NOSIG


Station Type Date Time Source
LCRA Decoded METAR 2024/05/28 22:50 UTC NOAA

Akrotiri, Cyprus (LCRA) 34-35N 032-59E 0M
May 28, 2024 - 06:50 PM EDT / 2024.05.28 2250 UTC
Wind: from the W (280 degrees) at 7 MPH (6 KT):0
Visibility: greater than 7 mile(s):0
Temperature: 68 F (20 C)
Dew Point: 64 F (18 C)
Relative Humidity: 88%
Pressure (altimeter): 29.85 in. Hg (1011 hPa)
ob: LCRA 282250Z 28006KT CAVOK 20/18 Q1011 NOSIG
cycle: 23

Station Type Date Time Source
LCRA TAF 2024/05/28 21:57 UTC NOAA